sensor_id;sensor_type;location;lat;lon;timestamp;temperature;humidity
8563;DHT22;16392;52.508;13.468;2023-08-07T00:01:16;14.90;99.90
8563;DHT22;16392;52.508;13.468;2023-08-07T00:03:43;14.90;99.90
8563;DHT22;16392;52.508;13.468;2023-08-07T00:06:10;14.90;99.90
8563;DHT22;16392;52.508;13.468;2023-08-07T00:08:36;14.90;99.90
8563;DHT22;16392;52.508;13.468;2023-08-07T00:11:08;14.90;99.90
8563;DHT22;16392;52.508;13.468;2023-08-07T00:13:35;14.90;99.90
8563;DHT22;16392;52.508;13.468;2023-08-07T00:16:02;14.90;99.90
8563;DHT22;16392;52.508;13.468;2023-08-07T00:18:29;14.90;99.90
8563;DHT22;16392;52.508;13.468;2023-08-07T00:20:56;14.90;99.90
8563;DHT22;16392;52.508;13.468;2023-08-07T00:23:22;14.90;99.90
8563;DHT22;16392;52.508;13.468;2023-08-07T00:25:49;14.90;99.90
8563;DHT22;16392;52.508;13.468;2023-08-07T00:28:17;14.90;99.90
8563;DHT22;16392;52.508;13.468;2023-08-07T00:30:43;14.90;99.90
8563;DHT22;16392;52.508;13.468;2023-08-07T00:33:10;14.90;99.90
8563;DHT22;16392;52.508;13.468;2023-08-07T00:35:37;15.00;99.90
8563;DHT22;16392;52.508;13.468;2023-08-07T00:38:04;15.00;99.90
8563;DHT22;16392;52.508;13.468;2023-08-07T00:40:36;14.90;99.90
8563;DHT22;16392;52.508;13.468;2023-08-07T00:43:02;14.90;99.90
8563;DHT22;16392;52.508;13.468;2023-08-07T00:45:34;15.00;99.90
8563;DHT22;16392;52.508;13.468;2023-08-07T00:48:01;14.90;99.90
8563;DHT22;16392;52.508;13.468;2023-08-07T00:50:28;15.00;99.90
8563;DHT22;16392;52.508;13.468;2023-08-07T00:52:55;15.00;99.90
8563;DHT22;16392;52.508;13.468;2023-08-07T00:55:22;15.00;99.90
8563;DHT22;16392;52.508;13.468;2023-08-07T00:57:49;15.00;99.90
8563;DHT22;16392;52.508;13.468;2023-08-07T01:00:16;15.10;99.90
8563;DHT22;16392;52.508;13.468;2023-08-07T01:02:45;15.10;99.90
8563;DHT22;16392;52.508;13.468;2023-08-07T01:05:14;15.10;99.90
8563;DHT22;16392;52.508;13.468;2023-08-07T01:07:41;15.10;99.90
8563;DHT22;16392;52.508;13.468;2023-08-07T01:10:08;15.10;99.90
8563;DHT22;16392;52.508;13.468;2023-08-07T01:12:41;15.10;99.90
8563;DHT22;16392;52.508;13.468;2023-08-07T01:15:13;15.10;99.90
8563;DHT22;16392;52.508;13.468;2023-08-07T01:17:42;15.10;99.90
8563;DHT22;16392;52.508;13.468;2023-08-07T01:20:11;15.10;99.90
8563;DHT22;16392;52.508;13.468;2023-08-07T01:22:39;15.10;99.90
8563;DHT22;16392;52.508;13.468;2023-08-07T01:25:06;15.10;99.90
8563;DHT22;16392;52.508;13.468;2023-08-07T01:27:36;15.20;99.90
8563;DHT22;16392;52.508;13.468;2023-08-07T01:30:12;15.20;99.90
8563;DHT22;16392;52.508;13.468;2023-08-07T01:32:46;15.20;99.90
8563;DHT22;16392;52.508;13.468;2023-08-07T01:35:15;15.20;99.90
8563;DHT22;16392;52.508;13.468;2023-08-07T01:37:45;15.10;99.90
8563;DHT22;16392;52.508;13.468;2023-08-07T01:40:13;15.10;99.90
8563;DHT22;16392;52.508;13.468;2023-08-07T01:42:40;15.00;99.90
8563;DHT22;16392;52.508;13.468;2023-08-07T01:45:07;15.00;99.90
8563;DHT22;16392;52.508;13.468;2023-08-07T01:47:34;15.00;99.90
8563;DHT22;16392;52.508;13.468;2023-08-07T01:50:01;15.00;99.90
8563;DHT22;16392;52.508;13.468;2023-08-07T01:52:27;15.00;99.90
8563;DHT22;16392;52.508;13.468;2023-08-07T01:54:55;14.90;99.90
8563;DHT22;16392;52.508;13.468;2023-08-07T01:57:22;14.90;99.90
8563;DHT22;16392;52.508;13.468;2023-08-07T01:59:49;14.90;99.90
8563;DHT22;16392;52.508;13.468;2023-08-07T02:02:15;14.80;99.90
8563;DHT22;16392;52.508;13.468;2023-08-07T02:04:42;14.80;99.90
8563;DHT22;16392;52.508;13.468;2023-08-07T02:07:08;14.80;99.90
8563;DHT22;16392;52.508;13.468;2023-08-07T02:09:35;14.70;99.90
8563;DHT22;16392;52.508;13.468;2023-08-07T02:12:04;14.70;99.90
8563;DHT22;16392;52.508;13.468;2023-08-07T02:14:30;14.70;99.90
8563;DHT22;16392;52.508;13.468;2023-08-07T02:16:57;14.60;99.90
8563;DHT22;16392;52.508;13.468;2023-08-07T02:19:24;14.60;99.90
8563;DHT22;16392;52.508;13.468;2023-08-07T02:21:50;14.60;99.90
8563;DHT22;16392;52.508;13.468;2023-08-07T02:24:17;14.60;99.90
8563;DHT22;16392;52.508;13.468;2023-08-07T02:26:45;14.60;99.90
8563;DHT22;16392;52.508;13.468;2023-08-07T02:29:13;14.60;99.90
8563;DHT22;16392;52.508;13.468;2023-08-07T02:31:40;14.70;99.90
8563;DHT22;16392;52.508;13.468;2023-08-07T02:34:06;14.80;99.90
8563;DHT22;16392;52.508;13.468;2023-08-07T02:36:33;14.80;99.90
8563;DHT22;16392;52.508;13.468;2023-08-07T02:39:00;14.80;99.90
8563;DHT22;16392;52.508;13.468;2023-08-07T02:41:26;14.90;99.90
8563;DHT22;16392;52.508;13.468;2023-08-07T02:43:53;14.90;99.90
8563;DHT22;16392;52.508;13.468;2023-08-07T02:46:21;15.00;99.90
8563;DHT22;16392;52.508;13.468;2023-08-07T02:48:47;15.00;99.90
8563;DHT22;16392;52.508;13.468;2023-08-07T02:51:14;15.00;99.90
8563;DHT22;16392;52.508;13.468;2023-08-07T02:53:41;15.10;99.90
8563;DHT22;16392;52.508;13.468;2023-08-07T02:56:07;15.10;99.90
8563;DHT22;16392;52.508;13.468;2023-08-07T02:58:34;15.10;99.90
8563;DHT22;16392;52.508;13.468;2023-08-07T03:01:03;15.20;99.90
8563;DHT22;16392;52.508;13.468;2023-08-07T03:03:32;15.20;99.90
8563;DHT22;16392;52.508;13.468;2023-08-07T03:05:59;15.20;99.90
8563;DHT22;16392;52.508;13.468;2023-08-07T03:08:26;15.30;99.90
8563;DHT22;16392;52.508;13.468;2023-08-07T03:10:53;15.30;99.90
8563;DHT22;16392;52.508;13.468;2023-08-07T03:13:21;15.30;99.90
8563;DHT22;16392;52.508;13.468;2023-08-07T03:15:48;15.30;99.90
8563;DHT22;16392;52.508;13.468;2023-08-07T03:18:15;15.20;99.90
8563;DHT22;16392;52.508;13.468;2023-08-07T03:20:44;15.20;99.90
8563;DHT22;16392;52.508;13.468;2023-08-07T03:23:11;15.20;99.90
8563;DHT22;16392;52.508;13.468;2023-08-07T03:25:37;15.20;99.90
8563;DHT22;16392;52.508;13.468;2023-08-07T03:28:04;15.20;99.90
8563;DHT22;16392;52.508;13.468;2023-08-07T03:30:31;15.20;99.90
8563;DHT22;16392;52.508;13.468;2023-08-07T03:32:57;15.20;99.90
8563;DHT22;16392;52.508;13.468;2023-08-07T03:35:24;15.20;99.90
8563;DHT22;16392;52.508;13.468;2023-08-07T03:37:52;15.10;99.90
8563;DHT22;16392;52.508;13.468;2023-08-07T03:40:18;15.10;99.90
8563;DHT22;16392;52.508;13.468;2023-08-07T03:42:45;15.20;99.90
8563;DHT22;16392;52.508;13.468;2023-08-07T03:45:11;15.20;99.90
8563;DHT22;16392;52.508;13.468;2023-08-07T03:47:38;15.20;99.90
8563;DHT22;16392;52.508;13.468;2023-08-07T03:50:05;15.20;99.90
8563;DHT22;16392;52.508;13.468;2023-08-07T03:52:32;15.20;99.90
8563;DHT22;16392;52.508;13.468;2023-08-07T03:55:00;15.30;99.90
8563;DHT22;16392;52.508;13.468;2023-08-07T03:57:26;15.30;99.90
8563;DHT22;16392;52.508;13.468;2023-08-07T03:59:53;15.30;99.90
8563;DHT22;16392;52.508;13.468;2023-08-07T04:02:20;15.30;99.90
8563;DHT22;16392;52.508;13.468;2023-08-07T04:04:47;15.30;99.90
8563;DHT22;16392;52.508;13.468;2023-08-07T04:07:14;15.30;99.90
8563;DHT22;16392;52.508;13.468;2023-08-07T04:09:40;15.30;99.90
8563;DHT22;16392;52.508;13.468;2023-08-07T04:12:09;15.30;99.90
8563;DHT22;16392;52.508;13.468;2023-08-07T04:14:35;15.40;99.90
8563;DHT22;16392;52.508;13.468;2023-08-07T04:17:02;15.40;99.90
8563;DHT22;16392;52.508;13.468;2023-08-07T04:19:29;15.50;99.90
8563;DHT22;16392;52.508;13.468;2023-08-07T04:21:56;15.40;99.90
8563;DHT22;16392;52.508;13.468;2023-08-07T04:24:22;15.50;99.90
8563;DHT22;16392;52.508;13.468;2023-08-07T04:26:49;15.50;99.90
8563;DHT22;16392;52.508;13.468;2023-08-07T04:29:17;15.60;99.90
8563;DHT22;16392;52.508;13.468;2023-08-07T04:31:43;15.80;99.90
8563;DHT22;16392;52.508;13.468;2023-08-07T04:34:10;15.90;99.90
8563;DHT22;16392;52.508;13.468;2023-08-07T04:36:38;15.90;99.90
8563;DHT22;16392;52.508;13.468;2023-08-07T04:39:04;16.00;99.90
8563;DHT22;16392;52.508;13.468;2023-08-07T04:41:31;16.00;99.90
8563;DHT22;16392;52.508;13.468;2023-08-07T04:43:57;16.00;99.90
8563;DHT22;16392;52.508;13.468;2023-08-07T04:46:26;16.00;99.90
8563;DHT22;16392;52.508;13.468;2023-08-07T04:48:52;16.00;99.90
8563;DHT22;16392;52.508;13.468;2023-08-07T04:51:19;16.20;99.90
8563;DHT22;16392;52.508;13.468;2023-08-07T04:53:46;16.50;99.90
8563;DHT22;16392;52.508;13.468;2023-08-07T04:56:16;16.60;99.90
8563;DHT22;16392;52.508;13.468;2023-08-07T04:58:42;16.60;99.90
8563;DHT22;16392;52.508;13.468;2023-08-07T05:01:09;16.50;99.90
8563;DHT22;16392;52.508;13.468;2023-08-07T05:03:37;16.50;99.90
8563;DHT22;16392;52.508;13.468;2023-08-07T05:06:03;16.90;99.90
8563;DHT22;16392;52.508;13.468;2023-08-07T05:08:31;17.40;99.90
8563;DHT22;16392;52.508;13.468;2023-08-07T05:10:58;17.50;99.90
8563;DHT22;16392;52.508;13.468;2023-08-07T05:13:24;17.30;99.90
8563;DHT22;16392;52.508;13.468;2023-08-07T05:15:51;17.20;99.90
8563;DHT22;16392;52.508;13.468;2023-08-07T05:18:18;17.40;99.90
8563;DHT22;16392;52.508;13.468;2023-08-07T05:20:46;17.40;99.90
8563;DHT22;16392;52.508;13.468;2023-08-07T05:23:13;17.00;99.90
8563;DHT22;16392;52.508;13.468;2023-08-07T05:25:39;16.90;99.90
8563;DHT22;16392;52.508;13.468;2023-08-07T05:28:06;16.70;99.90
8563;DHT22;16392;52.508;13.468;2023-08-07T05:30:33;16.50;99.90
8563;DHT22;16392;52.508;13.468;2023-08-07T05:32:59;16.40;99.90
8563;DHT22;16392;52.508;13.468;2023-08-07T05:35:26;16.40;99.90
8563;DHT22;16392;52.508;13.468;2023-08-07T05:37:54;16.40;99.90
8563;DHT22;16392;52.508;13.468;2023-08-07T05:40:21;16.40;99.90
8563;DHT22;16392;52.508;13.468;2023-08-07T05:42:47;16.40;99.90
8563;DHT22;16392;52.508;13.468;2023-08-07T05:45:14;16.40;99.90
8563;DHT22;16392;52.508;13.468;2023-08-07T05:47:40;16.40;99.90
8563;DHT22;16392;52.508;13.468;2023-08-07T05:50:08;16.50;99.90
8563;DHT22;16392;52.508;13.468;2023-08-07T05:52:34;16.50;99.90
8563;DHT22;16392;52.508;13.468;2023-08-07T05:55:03;16.50;99.90
8563;DHT22;16392;52.508;13.468;2023-08-07T05:57:29;16.50;99.90
8563;DHT22;16392;52.508;13.468;2023-08-07T05:59:56;16.70;99.90
8563;DHT22;16392;52.508;13.468;2023-08-07T06:02:23;16.90;99.90
8563;DHT22;16392;52.508;13.468;2023-08-07T06:04:50;17.00;99.90
8563;DHT22;16392;52.508;13.468;2023-08-07T06:07:16;17.40;99.90
8563;DHT22;16392;52.508;13.468;2023-08-07T06:09:43;17.40;99.90
8563;DHT22;16392;52.508;13.468;2023-08-07T06:12:11;17.30;99.90
8563;DHT22;16392;52.508;13.468;2023-08-07T06:14:37;17.40;99.90
8563;DHT22;16392;52.508;13.468;2023-08-07T06:17:06;17.80;99.90
8563;DHT22;16392;52.508;13.468;2023-08-07T06:19:33;17.90;99.90
8563;DHT22;16392;52.508;13.468;2023-08-07T06:21:59;18.20;99.90
8563;DHT22;16392;52.508;13.468;2023-08-07T06:24:26;18.40;99.90
8563;DHT22;16392;52.508;13.468;2023-08-07T06:26:53;18.30;99.90
8563;DHT22;16392;52.508;13.468;2023-08-07T06:29:21;18.20;99.90
8563;DHT22;16392;52.508;13.468;2023-08-07T06:31:47;18.20;99.90
8563;DHT22;16392;52.508;13.468;2023-08-07T06:34:14;18.60;99.90
8563;DHT22;16392;52.508;13.468;2023-08-07T06:36:40;18.90;99.90
8563;DHT22;16392;52.508;13.468;2023-08-07T06:39:07;18.80;99.90
8563;DHT22;16392;52.508;13.468;2023-08-07T06:41:33;19.10;99.90
8563;DHT22;16392;52.508;13.468;2023-08-07T06:44:00;19.10;99.90
8563;DHT22;16392;52.508;13.468;2023-08-07T06:46:28;19.30;99.90
8563;DHT22;16392;52.508;13.468;2023-08-07T06:48:55;19.20;99.90
8563;DHT22;16392;52.508;13.468;2023-08-07T06:51:21;19.20;99.90
8563;DHT22;16392;52.508;13.468;2023-08-07T06:53:48;18.80;99.90
8563;DHT22;16392;52.508;13.468;2023-08-07T06:56:14;18.60;99.90
8563;DHT22;16392;52.508;13.468;2023-08-07T06:58:41;18.60;99.90
8563;DHT22;16392;52.508;13.468;2023-08-07T07:01:08;18.40;99.90
8563;DHT22;16392;52.508;13.468;2023-08-07T07:03:35;18.50;99.90
8563;DHT22;16392;52.508;13.468;2023-08-07T07:06:02;18.60;99.90
8563;DHT22;16392;52.508;13.468;2023-08-07T07:08:29;18.90;99.90
8563;DHT22;16392;52.508;13.468;2023-08-07T07:10:55;19.00;99.90
8563;DHT22;16392;52.508;13.468;2023-08-07T07:13:23;19.10;99.90
8563;DHT22;16392;52.508;13.468;2023-08-07T07:15:53;19.30;99.90
8563;DHT22;16392;52.508;13.468;2023-08-07T07:18:19;19.60;99.90
8563;DHT22;16392;52.508;13.468;2023-08-07T07:20:47;19.50;99.90
8563;DHT22;16392;52.508;13.468;2023-08-07T07:23:14;19.40;99.90
8563;DHT22;16392;52.508;13.468;2023-08-07T07:25:40;19.70;99.90
8563;DHT22;16392;52.508;13.468;2023-08-07T07:28:07;20.10;86.60
8563;DHT22;16392;52.508;13.468;2023-08-07T07:30:34;20.10;1.00
8563;DHT22;16392;52.508;13.468;2023-08-07T07:33:00;20.10;1.00
8563;DHT22;16392;52.508;13.468;2023-08-07T07:35:27;20.20;1.00
8563;DHT22;16392;52.508;13.468;2023-08-07T07:37:55;20.40;1.00
8563;DHT22;16392;52.508;13.468;2023-08-07T07:40:21;20.00;1.00
8563;DHT22;16392;52.508;13.468;2023-08-07T07:42:48;19.90;1.00
8563;DHT22;16392;52.508;13.468;2023-08-07T07:45:14;20.00;1.00
8563;DHT22;16392;52.508;13.468;2023-08-07T07:47:41;19.90;1.00
8563;DHT22;16392;52.508;13.468;2023-08-07T07:50:09;19.90;1.00
8563;DHT22;16392;52.508;13.468;2023-08-07T07:52:36;19.60;1.00
8563;DHT22;16392;52.508;13.468;2023-08-07T07:55:04;19.60;1.00
8563;DHT22;16392;52.508;13.468;2023-08-07T07:57:31;19.90;1.00
8563;DHT22;16392;52.508;13.468;2023-08-07T07:59:58;19.90;1.00
8563;DHT22;16392;52.508;13.468;2023-08-07T08:02:25;19.60;1.00
8563;DHT22;16392;52.508;13.468;2023-08-07T08:04:52;19.50;1.00
8563;DHT22;16392;52.508;13.468;2023-08-07T08:07:18;19.80;1.00
8563;DHT22;16392;52.508;13.468;2023-08-07T08:09:45;19.90;1.00
8563;DHT22;16392;52.508;13.468;2023-08-07T08:12:13;19.80;1.00
8563;DHT22;16392;52.508;13.468;2023-08-07T08:14:41;19.70;1.00
8563;DHT22;16392;52.508;13.468;2023-08-07T08:17:08;19.70;1.00
8563;DHT22;16392;52.508;13.468;2023-08-07T08:19:34;19.70;1.00
8563;DHT22;16392;52.508;13.468;2023-08-07T08:22:01;19.90;1.00
8563;DHT22;16392;52.508;13.468;2023-08-07T08:24:27;20.00;1.00
8563;DHT22;16392;52.508;13.468;2023-08-07T08:26:54;20.10;1.00
8563;DHT22;16392;52.508;13.468;2023-08-07T08:29:24;19.90;1.00
8563;DHT22;16392;52.508;13.468;2023-08-07T08:31:53;19.50;1.00
8563;DHT22;16392;52.508;13.468;2023-08-07T08:34:20;19.60;1.00
8563;DHT22;16392;52.508;13.468;2023-08-07T08:36:47;19.70;1.00
8563;DHT22;16392;52.508;13.468;2023-08-07T08:39:13;19.70;1.00
8563;DHT22;16392;52.508;13.468;2023-08-07T08:41:40;19.50;1.00
8563;DHT22;16392;52.508;13.468;2023-08-07T08:44:10;19.40;1.00
8563;DHT22;16392;52.508;13.468;2023-08-07T08:46:41;19.30;1.00
8563;DHT22;16392;52.508;13.468;2023-08-07T08:49:08;19.50;1.00
8563;DHT22;16392;52.508;13.468;2023-08-07T08:51:37;19.70;1.00
8563;DHT22;16392;52.508;13.468;2023-08-07T08:54:04;19.60;1.00
8563;DHT22;16392;52.508;13.468;2023-08-07T08:56:33;19.70;1.00
8563;DHT22;16392;52.508;13.468;2023-08-07T08:59:00;20.20;1.00
8563;DHT22;16392;52.508;13.468;2023-08-07T09:01:27;20.40;1.00
8563;DHT22;16392;52.508;13.468;2023-08-07T09:03:55;20.50;1.00
8563;DHT22;16392;52.508;13.468;2023-08-07T09:06:23;20.70;1.00
8563;DHT22;16392;52.508;13.468;2023-08-07T09:08:50;20.90;99.90
8563;DHT22;16392;52.508;13.468;2023-08-07T09:11:18;20.70;99.90
8563;DHT22;16392;52.508;13.468;2023-08-07T09:13:47;20.70;99.90
8563;DHT22;16392;52.508;13.468;2023-08-07T09:16:15;20.70;98.90
8563;DHT22;16392;52.508;13.468;2023-08-07T09:18:42;20.80;99.90
8563;DHT22;16392;52.508;13.468;2023-08-07T09:21:10;21.30;33.50
8563;DHT22;16392;52.508;13.468;2023-08-07T09:23:37;21.30;99.90
8563;DHT22;16392;52.508;13.468;2023-08-07T09:26:05;20.90;1.00
8563;DHT22;16392;52.508;13.468;2023-08-07T09:28:32;20.20;1.00
8563;DHT22;16392;52.508;13.468;2023-08-07T09:30:59;19.60;1.00
8563;DHT22;16392;52.508;13.468;2023-08-07T09:33:28;19.70;1.00
8563;DHT22;16392;52.508;13.468;2023-08-07T09:35:57;19.90;1.00
8563;DHT22;16392;52.508;13.468;2023-08-07T09:38:28;20.30;1.00
8563;DHT22;16392;52.508;13.468;2023-08-07T09:40:57;20.70;1.00
8563;DHT22;16392;52.508;13.468;2023-08-07T09:43:24;21.30;1.00
8563;DHT22;16392;52.508;13.468;2023-08-07T09:45:50;21.30;99.90
8563;DHT22;16392;52.508;13.468;2023-08-07T09:48:23;21.30;99.90
8563;DHT22;16392;52.508;13.468;2023-08-07T09:50:50;21.50;99.90
8563;DHT22;16392;52.508;13.468;2023-08-07T09:53:16;21.20;99.90
8563;DHT22;16392;52.508;13.468;2023-08-07T09:55:45;20.80;1.00
8563;DHT22;16392;52.508;13.468;2023-08-07T09:58:12;20.60;1.00
8563;DHT22;16392;52.508;13.468;2023-08-07T10:00:40;20.80;1.00
8563;DHT22;16392;52.508;13.468;2023-08-07T10:03:07;20.80;1.00
8563;DHT22;16392;52.508;13.468;2023-08-07T10:05:33;20.80;1.00
8563;DHT22;16392;52.508;13.468;2023-08-07T10:08:00;20.50;1.00
8563;DHT22;16392;52.508;13.468;2023-08-07T10:10:27;20.30;1.00
8563;DHT22;16392;52.508;13.468;2023-08-07T10:12:56;20.50;1.00
8563;DHT22;16392;52.508;13.468;2023-08-07T10:15:23;20.80;1.00
8563;DHT22;16392;52.508;13.468;2023-08-07T10:17:50;20.90;99.90
8563;DHT22;16392;52.508;13.468;2023-08-07T10:20:17;20.90;1.00
8563;DHT22;16392;52.508;13.468;2023-08-07T10:22:44;21.00;99.90
8563;DHT22;16392;52.508;13.468;2023-08-07T10:25:11;20.80;1.00
8563;DHT22;16392;52.508;13.468;2023-08-07T10:27:40;21.00;1.00
8563;DHT22;16392;52.508;13.468;2023-08-07T10:30:12;21.20;1.00
8563;DHT22;16392;52.508;13.468;2023-08-07T10:32:41;21.00;99.90
8563;DHT22;16392;52.508;13.468;2023-08-07T10:35:09;21.20;1.00
8563;DHT22;16392;52.508;13.468;2023-08-07T10:37:39;21.20;1.00
8563;DHT22;16392;52.508;13.468;2023-08-07T10:40:07;21.60;88.40
8563;DHT22;16392;52.508;13.468;2023-08-07T10:42:52;21.50;99.90
8563;DHT22;16392;52.508;13.468;2023-08-07T10:45:23;21.20;99.90
8563;DHT22;16392;52.508;13.468;2023-08-07T10:48:05;21.20;1.00
8563;DHT22;16392;52.508;13.468;2023-08-07T10:50:33;21.60;99.90
8563;DHT22;16392;52.508;13.468;2023-08-07T10:53:02;21.80;1.00
8563;DHT22;16392;52.508;13.468;2023-08-07T10:55:31;22.20;1.00
8563;DHT22;16392;52.508;13.468;2023-08-07T10:58:21;22.20;39.80
8563;DHT22;16392;52.508;13.468;2023-08-07T11:00:50;22.00;1.00
8563;DHT22;16392;52.508;13.468;2023-08-07T11:03:25;21.60;1.00
8563;DHT22;16392;52.508;13.468;2023-08-07T11:05:52;21.10;1.00
8563;DHT22;16392;52.508;13.468;2023-08-07T11:08:22;21.30;99.90
8563;DHT22;16392;52.508;13.468;2023-08-07T11:10:48;21.40;1.00
8563;DHT22;16392;52.508;13.468;2023-08-07T11:13:15;21.10;1.00
8563;DHT22;16392;52.508;13.468;2023-08-07T11:15:42;20.30;1.00
8563;DHT22;16392;52.508;13.468;2023-08-07T11:18:11;19.20;1.00
8563;DHT22;16392;52.508;13.468;2023-08-07T11:20:38;18.40;99.90
8563;DHT22;16392;52.508;13.468;2023-08-07T11:23:04;17.70;99.90
8563;DHT22;16392;52.508;13.468;2023-08-07T11:25:31;17.50;99.90
8563;DHT22;16392;52.508;13.468;2023-08-07T11:27:58;17.40;99.90
8563;DHT22;16392;52.508;13.468;2023-08-07T11:30:25;17.90;99.90
8563;DHT22;16392;52.508;13.468;2023-08-07T11:32:52;18.30;99.90
8563;DHT22;16392;52.508;13.468;2023-08-07T11:35:19;18.20;99.90
8563;DHT22;16392;52.508;13.468;2023-08-07T11:37:47;18.30;99.90
8563;DHT22;16392;52.508;13.468;2023-08-07T11:40:14;18.50;99.90
8563;DHT22;16392;52.508;13.468;2023-08-07T11:42:41;18.80;99.90
8563;DHT22;16392;52.508;13.468;2023-08-07T11:45:08;18.80;99.90
8563;DHT22;16392;52.508;13.468;2023-08-07T11:47:35;18.70;99.90
8563;DHT22;16392;52.508;13.468;2023-08-07T11:50:02;18.50;99.90
8563;DHT22;16392;52.508;13.468;2023-08-07T11:52:30;18.40;99.90
8563;DHT22;16392;52.508;13.468;2023-08-07T11:54:57;18.70;99.90
8563;DHT22;16392;52.508;13.468;2023-08-07T11:57:25;19.10;99.90
8563;DHT22;16392;52.508;13.468;2023-08-07T11:59:51;19.40;99.90
8563;DHT22;16392;52.508;13.468;2023-08-07T12:02:22;19.60;99.90
8563;DHT22;16392;52.508;13.468;2023-08-07T12:04:50;20.00;99.90
8563;DHT22;16392;52.508;13.468;2023-08-07T12:07:17;20.40;99.90
8563;DHT22;16392;52.508;13.468;2023-08-07T12:09:47;20.70;99.90
8563;DHT22;16392;52.508;13.468;2023-08-07T12:12:14;21.10;39.40
8563;DHT22;16392;52.508;13.468;2023-08-07T12:14:40;21.30;1.00
8563;DHT22;16392;52.508;13.468;2023-08-07T12:17:09;21.70;1.00
8563;DHT22;16392;52.508;13.468;2023-08-07T12:19:37;21.80;1.00
8563;DHT22;16392;52.508;13.468;2023-08-07T12:22:06;21.80;1.00
8563;DHT22;16392;52.508;13.468;2023-08-07T12:24:35;21.50;1.00
8563;DHT22;16392;52.508;13.468;2023-08-07T12:27:04;21.40;1.00
8563;DHT22;16392;52.508;13.468;2023-08-07T12:29:31;21.10;1.00
8563;DHT22;16392;52.508;13.468;2023-08-07T12:31:58;21.00;1.00
8563;DHT22;16392;52.508;13.468;2023-08-07T12:34:26;21.20;1.00
8563;DHT22;16392;52.508;13.468;2023-08-07T12:36:53;21.70;1.00
8563;DHT22;16392;52.508;13.468;2023-08-07T12:39:19;21.40;1.00
8563;DHT22;16392;52.508;13.468;2023-08-07T12:41:47;21.40;1.00
8563;DHT22;16392;52.508;13.468;2023-08-07T12:44:16;21.30;1.00
8563;DHT22;16392;52.508;13.468;2023-08-07T12:46:42;20.90;1.00
8563;DHT22;16392;52.508;13.468;2023-08-07T12:49:09;20.70;1.00
8563;DHT22;16392;52.508;13.468;2023-08-07T12:51:35;20.20;1.00
8563;DHT22;16392;52.508;13.468;2023-08-07T12:54:02;20.00;1.00
8563;DHT22;16392;52.508;13.468;2023-08-07T12:56:29;20.10;1.00
8563;DHT22;16392;52.508;13.468;2023-08-07T12:58:56;20.20;1.00
8563;DHT22;16392;52.508;13.468;2023-08-07T13:01:23;20.20;1.00
8563;DHT22;16392;52.508;13.468;2023-08-07T13:03:51;20.20;1.00
8563;DHT22;16392;52.508;13.468;2023-08-07T13:06:17;20.00;1.00
8563;DHT22;16392;52.508;13.468;2023-08-07T13:08:44;19.80;1.00
8563;DHT22;16392;52.508;13.468;2023-08-07T13:11:11;20.00;99.90
8563;DHT22;16392;52.508;13.468;2023-08-07T13:13:38;20.60;1.00
8563;DHT22;16392;52.508;13.468;2023-08-07T13:16:05;21.30;99.90
8563;DHT22;16392;52.508;13.468;2023-08-07T13:18:33;21.80;1.00
8563;DHT22;16392;52.508;13.468;2023-08-07T13:21:00;22.10;33.10
8563;DHT22;16392;52.508;13.468;2023-08-07T13:23:26;22.30;1.00
8563;DHT22;16392;52.508;13.468;2023-08-07T13:25:53;22.50;1.00
8563;DHT22;16392;52.508;13.468;2023-08-07T13:28:19;22.50;43.60
8563;DHT22;16392;52.508;13.468;2023-08-07T13:30:46;22.90;1.00
8563;DHT22;16392;52.508;13.468;2023-08-07T13:33:12;22.40;1.00
8563;DHT22;16392;52.508;13.468;2023-08-07T13:35:40;22.30;99.90
8563;DHT22;16392;52.508;13.468;2023-08-07T13:38:07;22.20;99.90
8563;DHT22;16392;52.508;13.468;2023-08-07T13:40:35;22.50;37.80
8563;DHT22;16392;52.508;13.468;2023-08-07T13:43:02;22.00;1.00
8563;DHT22;16392;52.508;13.468;2023-08-07T13:45:33;21.90;1.00
8563;DHT22;16392;52.508;13.468;2023-08-07T13:47:59;21.60;1.00
8563;DHT22;16392;52.508;13.468;2023-08-07T13:50:26;21.70;1.00
8563;DHT22;16392;52.508;13.468;2023-08-07T13:52:53;21.80;1.00
8563;DHT22;16392;52.508;13.468;2023-08-07T13:55:20;21.90;1.00
8563;DHT22;16392;52.508;13.468;2023-08-07T13:57:47;22.20;1.00
8563;DHT22;16392;52.508;13.468;2023-08-07T14:00:14;22.40;99.90
8563;DHT22;16392;52.508;13.468;2023-08-07T14:02:40;22.50;99.90
8563;DHT22;16392;52.508;13.468;2023-08-07T14:05:07;22.40;99.90
8563;DHT22;16392;52.508;13.468;2023-08-07T14:07:34;21.80;1.00
8563;DHT22;16392;52.508;13.468;2023-08-07T14:10:01;21.80;1.00
8563;DHT22;16392;52.508;13.468;2023-08-07T14:12:28;21.50;1.00
8563;DHT22;16392;52.508;13.468;2023-08-07T14:14:54;21.40;1.00
8563;DHT22;16392;52.508;13.468;2023-08-07T14:17:21;21.30;24.30
8563;DHT22;16392;52.508;13.468;2023-08-07T14:19:48;21.40;40.40
8563;DHT22;16392;52.508;13.468;2023-08-07T14:22:14;21.30;33.10
8563;DHT22;16392;52.508;13.468;2023-08-07T14:24:41;21.30;75.30
8563;DHT22;16392;52.508;13.468;2023-08-07T14:27:09;21.30;99.90
8563;DHT22;16392;52.508;13.468;2023-08-07T14:29:35;21.40;99.90
8563;DHT22;16392;52.508;13.468;2023-08-07T14:32:02;21.50;99.90
8563;DHT22;16392;52.508;13.468;2023-08-07T14:34:29;21.50;99.90
8563;DHT22;16392;52.508;13.468;2023-08-07T14:36:55;21.50;99.90
8563;DHT22;16392;52.508;13.468;2023-08-07T14:39:22;21.50;99.90
8563;DHT22;16392;52.508;13.468;2023-08-07T14:41:48;21.50;1.00
8563;DHT22;16392;52.508;13.468;2023-08-07T14:44:18;21.30;1.00
8563;DHT22;16392;52.508;13.468;2023-08-07T14:46:45;21.40;1.00
8563;DHT22;16392;52.508;13.468;2023-08-07T14:49:11;21.30;1.00
8563;DHT22;16392;52.508;13.468;2023-08-07T14:51:38;21.40;1.00
8563;DHT22;16392;52.508;13.468;2023-08-07T14:54:04;21.40;1.00
8563;DHT22;16392;52.508;13.468;2023-08-07T14:56:31;21.20;1.00
8563;DHT22;16392;52.508;13.468;2023-08-07T14:58:57;21.00;1.00
8563;DHT22;16392;52.508;13.468;2023-08-07T15:01:25;20.90;1.00
8563;DHT22;16392;52.508;13.468;2023-08-07T15:03:52;20.80;32.30
8563;DHT22;16392;52.508;13.468;2023-08-07T15:06:19;20.50;99.90
8563;DHT22;16392;52.508;13.468;2023-08-07T15:08:47;20.40;99.90
8563;DHT22;16392;52.508;13.468;2023-08-07T15:11:14;20.20;99.90
8563;DHT22;16392;52.508;13.468;2023-08-07T15:13:40;20.10;1.00
8563;DHT22;16392;52.508;13.468;2023-08-07T15:16:07;20.10;99.90
8563;DHT22;16392;52.508;13.468;2023-08-07T15:18:36;20.40;99.90
8563;DHT22;16392;52.508;13.468;2023-08-07T15:21:03;20.50;99.90
8563;DHT22;16392;52.508;13.468;2023-08-07T15:23:30;20.40;99.90
8563;DHT22;16392;52.508;13.468;2023-08-07T15:25:56;20.20;99.90
8563;DHT22;16392;52.508;13.468;2023-08-07T15:28:23;20.20;99.90
8563;DHT22;16392;52.508;13.468;2023-08-07T15:30:50;20.20;99.90
8563;DHT22;16392;52.508;13.468;2023-08-07T15:33:18;20.10;99.90
8563;DHT22;16392;52.508;13.468;2023-08-07T15:35:45;20.00;99.90